sensor_id;sensor_type;location;lat;lon;timestamp;P1;durP1;ratioP1;P2;durP2;ratioP2
20230;SDS011;10274;49.022;9.338;2022-08-21T00:01:14;2.40;;;2.13;;
20230;SDS011;10274;49.022;9.338;2022-08-21T00:03:43;2.23;;;2.03;;
20230;SDS011;10274;49.022;9.338;2022-08-21T00:06:10;2.83;;;2.63;;
20230;SDS011;10274;49.022;9.338;2022-08-21T00:08:38;3.40;;;2.40;;
20230;SDS011;10274;49.022;9.338;2022-08-21T00:11:05;3.40;;;2.37;;
20230;SDS011;10274;49.022;9.338;2022-08-21T00:13:32;2.47;;;2.27;;
20230;SDS011;10274;49.022;9.338;2022-08-21T00:15:59;2.93;;;2.00;;
20230;SDS011;10274;49.022;9.338;2022-08-21T00:18:26;2.57;;;2.20;;
20230;SDS011;10274;49.022;9.338;2022-08-21T00:20:53;3.33;;;2.33;;
20230;SDS011;10274;49.022;9.338;2022-08-21T00:23:20;3.93;;;2.83;;
20230;SDS011;10274;49.022;9.338;2022-08-21T00:25:48;4.30;;;2.20;;
20230;SDS011;10274;49.022;9.338;2022-08-21T00:28:15;2.50;;;2.10;;
20230;SDS011;10274;49.022;9.338;2022-08-21T00:30:42;3.13;;;2.20;;
20230;SDS011;10274;49.022;9.338;2022-08-21T00:33:09;3.50;;;2.10;;
20230;SDS011;10274;49.022;9.338;2022-08-21T00:35:38;3.60;;;2.50;;
20230;SDS011;10274;49.022;9.338;2022-08-21T00:38:06;3.97;;;2.33;;
20230;SDS011;10274;49.022;9.338;2022-08-21T00:40:35;3.37;;;2.40;;
20230;SDS011;10274;49.022;9.338;2022-08-21T00:43:06;2.97;;;2.00;;
20230;SDS011;10274;49.022;9.338;2022-08-21T00:45:35;2.93;;;2.23;;
20230;SDS011;10274;49.022;9.338;2022-08-21T00:48:01;2.23;;;2.00;;
20230;SDS011;10274;49.022;9.338;2022-08-21T00:50:29;2.67;;;2.10;;
20230;SDS011;10274;49.022;9.338;2022-08-21T00:53:00;3.77;;;2.50;;
20230;SDS011;10274;49.022;9.338;2022-08-21T00:55:29;2.47;;;2.27;;
20230;SDS011;10274;49.022;9.338;2022-08-21T00:57:58;3.10;;;2.53;;
20230;SDS011;10274;49.022;9.338;2022-08-21T01:00:30;3.80;;;2.23;;
20230;SDS011;10274;49.022;9.338;2022-08-21T01:02:59;2.50;;;2.17;;
20230;SDS011;10274;49.022;9.338;2022-08-21T01:05:27;3.33;;;2.33;;
20230;SDS011;10274;49.022;9.338;2022-08-21T01:07:54;4.30;;;2.20;;
20230;SDS011;10274;49.022;9.338;2022-08-21T01:10:21;4.00;;;2.43;;
20230;SDS011;10274;49.022;9.338;2022-08-21T01:12:48;2.87;;;2.47;;
20230;SDS011;10274;49.022;9.338;2022-08-21T01:15:17;2.37;;;2.17;;
20230;SDS011;10274;49.022;9.338;2022-08-21T01:17:47;4.97;;;2.80;;
20230;SDS011;10274;49.022;9.338;2022-08-21T01:20:14;4.00;;;2.40;;
20230;SDS011;10274;49.022;9.338;2022-08-21T01:22:43;4.53;;;2.40;;
20230;SDS011;10274;49.022;9.338;2022-08-21T01:25:12;4.57;;;2.33;;
20230;SDS011;10274;49.022;9.338;2022-08-21T01:27:41;2.93;;;2.27;;
20230;SDS011;10274;49.022;9.338;2022-08-21T01:30:09;4.60;;;2.50;;
20230;SDS011;10274;49.022;9.338;2022-08-21T01:32:38;3.73;;;2.30;;
20230;SDS011;10274;49.022;9.338;2022-08-21T01:35:06;4.67;;;2.80;;
20230;SDS011;10274;49.022;9.338;2022-08-21T01:37:33;3.10;;;2.13;;
20230;SDS011;10274;49.022;9.338;2022-08-21T01:40:02;2.63;;;2.30;;
20230;SDS011;10274;49.022;9.338;2022-08-21T01:42:30;3.67;;;2.53;;
20230;SDS011;10274;49.022;9.338;2022-08-21T01:44:56;3.57;;;2.87;;
20230;SDS011;10274;49.022;9.338;2022-08-21T01:47:23;2.80;;;2.50;;
20230;SDS011;10274;49.022;9.338;2022-08-21T01:49:51;3.13;;;2.70;;
20230;SDS011;10274;49.022;9.338;2022-08-21T01:52:18;3.23;;;2.23;;
20230;SDS011;10274;49.022;9.338;2022-08-21T01:54:44;5.47;;;2.47;;
20230;SDS011;10274;49.022;9.338;2022-08-21T01:57:12;2.90;;;2.30;;
20230;SDS011;10274;49.022;9.338;2022-08-21T01:59:40;2.80;;;2.53;;
20230;SDS011;10274;49.022;9.338;2022-08-21T02:02:07;2.60;;;2.27;;
20230;SDS011;10274;49.022;9.338;2022-08-21T02:04:33;2.53;;;2.30;;
20230;SDS011;10274;49.022;9.338;2022-08-21T02:07:01;3.93;;;2.73;;
20230;SDS011;10274;49.022;9.338;2022-08-21T02:09:28;4.00;;;2.33;;
20230;SDS011;10274;49.022;9.338;2022-08-21T02:11:55;4.23;;;2.50;;
20230;SDS011;10274;49.022;9.338;2022-08-21T02:14:23;3.63;;;2.77;;
20230;SDS011;10274;49.022;9.338;2022-08-21T02:16:50;3.87;;;2.50;;
20230;SDS011;10274;49.022;9.338;2022-08-21T02:19:16;2.50;;;2.07;;
20230;SDS011;10274;49.022;9.338;2022-08-21T02:21:43;3.37;;;2.43;;
20230;SDS011;10274;49.022;9.338;2022-08-21T02:24:10;4.60;;;2.73;;
20230;SDS011;10274;49.022;9.338;2022-08-21T02:26:38;2.77;;;2.50;;
20230;SDS011;10274;49.022;9.338;2022-08-21T02:29:05;4.13;;;2.63;;
20230;SDS011;10274;49.022;9.338;2022-08-21T02:31:33;3.57;;;2.53;;
20230;SDS011;10274;49.022;9.338;2022-08-21T02:34:00;3.90;;;2.23;;
20230;SDS011;10274;49.022;9.338;2022-08-21T02:36:27;5.07;;;2.27;;
20230;SDS011;10274;49.022;9.338;2022-08-21T02:38:53;3.07;;;2.50;;
20230;SDS011;10274;49.022;9.338;2022-08-21T02:41:21;4.10;;;2.40;;
20230;SDS011;10274;49.022;9.338;2022-08-21T02:43:49;2.40;;;2.20;;
20230;SDS011;10274;49.022;9.338;2022-08-21T02:46:17;2.90;;;2.30;;
20230;SDS011;10274;49.022;9.338;2022-08-21T02:48:46;3.30;;;2.80;;
20230;SDS011;10274;49.022;9.338;2022-08-21T02:51:14;3.90;;;2.80;;
20230;SDS011;10274;49.022;9.338;2022-08-21T02:53:43;4.10;;;2.70;;
20230;SDS011;10274;49.022;9.338;2022-08-21T02:56:12;3.13;;;2.60;;
20230;SDS011;10274;49.022;9.338;2022-08-21T02:58:42;2.57;;;2.37;;
20230;SDS011;10274;49.022;9.338;2022-08-21T03:01:10;3.23;;;2.50;;
20230;SDS011;10274;49.022;9.338;2022-08-21T03:03:39;3.00;;;2.63;;
20230;SDS011;10274;49.022;9.338;2022-08-21T03:06:08;5.33;;;2.53;;
20230;SDS011;10274;49.022;9.338;2022-08-21T03:08:36;2.87;;;2.60;;
20230;SDS011;10274;49.022;9.338;2022-08-21T03:11:03;4.53;;;2.50;;
20230;SDS011;10274;49.022;9.338;2022-08-21T03:13:30;3.80;;;2.90;;
20230;SDS011;10274;49.022;9.338;2022-08-21T03:15:58;3.07;;;2.73;;
20230;SDS011;10274;49.022;9.338;2022-08-21T03:18:24;6.47;;;2.50;;
20230;SDS011;10274;49.022;9.338;2022-08-21T03:20:51;3.80;;;2.70;;
20230;SDS011;10274;49.022;9.338;2022-08-21T03:23:19;2.97;;;2.60;;
20230;SDS011;10274;49.022;9.338;2022-08-21T03:25:46;4.70;;;2.60;;
20230;SDS011;10274;49.022;9.338;2022-08-21T03:28:15;3.90;;;2.77;;
20230;SDS011;10274;49.022;9.338;2022-08-21T03:30:44;4.17;;;2.53;;
20230;SDS011;10274;49.022;9.338;2022-08-21T03:33:14;2.93;;;2.53;;
20230;SDS011;10274;49.022;9.338;2022-08-21T03:35:41;3.57;;;2.57;;
20230;SDS011;10274;49.022;9.338;2022-08-21T03:38:09;3.53;;;2.53;;
20230;SDS011;10274;49.022;9.338;2022-08-21T03:40:39;3.47;;;2.67;;
20230;SDS011;10274;49.022;9.338;2022-08-21T03:43:05;3.63;;;2.47;;
20230;SDS011;10274;49.022;9.338;2022-08-21T03:45:34;3.50;;;2.70;;
20230;SDS011;10274;49.022;9.338;2022-08-21T03:48:02;3.07;;;2.10;;
20230;SDS011;10274;49.022;9.338;2022-08-21T03:50:30;2.77;;;2.57;;
20230;SDS011;10274;49.022;9.338;2022-08-21T03:52:59;4.87;;;2.73;;
20230;SDS011;10274;49.022;9.338;2022-08-21T03:55:26;4.37;;;2.83;;
20230;SDS011;10274;49.022;9.338;2022-08-21T03:57:54;3.20;;;2.67;;
20230;SDS011;10274;49.022;9.338;2022-08-21T04:00:21;4.10;;;2.70;;
20230;SDS011;10274;49.022;9.338;2022-08-21T04:02:48;4.63;;;2.40;;
20230;SDS011;10274;49.022;9.338;2022-08-21T04:05:15;3.53;;;2.53;;
20230;SDS011;10274;49.022;9.338;2022-08-21T04:07:52;3.50;;;3.00;;
20230;SDS011;10274;49.022;9.338;2022-08-21T04:10:19;3.43;;;2.53;;
20230;SDS011;10274;49.022;9.338;2022-08-21T04:12:45;4.27;;;2.73;;
20230;SDS011;10274;49.022;9.338;2022-08-21T04:15:13;4.20;;;2.80;;
20230;SDS011;10274;49.022;9.338;2022-08-21T04:17:40;4.03;;;2.57;;
20230;SDS011;10274;49.022;9.338;2022-08-21T04:20:07;3.87;;;2.87;;
20230;SDS011;10274;49.022;9.338;2022-08-21T04:22:34;4.20;;;2.40;;
20230;SDS011;10274;49.022;9.338;2022-08-21T04:25:01;4.97;;;2.80;;
20230;SDS011;10274;49.022;9.338;2022-08-21T04:27:28;2.50;;;2.30;;
20230;SDS011;10274;49.022;9.338;2022-08-21T04:29:55;2.77;;;2.57;;
20230;SDS011;10274;49.022;9.338;2022-08-21T04:32:23;3.53;;;2.57;;
20230;SDS011;10274;49.022;9.338;2022-08-21T04:34:56;3.20;;;2.70;;
20230;SDS011;10274;49.022;9.338;2022-08-21T04:37:24;4.20;;;3.20;;
20230;SDS011;10274;49.022;9.338;2022-08-21T04:39:50;4.37;;;2.80;;
20230;SDS011;10274;49.022;9.338;2022-08-21T04:42:17;3.93;;;3.00;;
20230;SDS011;10274;49.022;9.338;2022-08-21T04:44:44;3.03;;;2.80;;
20230;SDS011;10274;49.022;9.338;2022-08-21T04:47:13;2.90;;;2.60;;
20230;SDS011;10274;49.022;9.338;2022-08-21T04:49:42;3.17;;;2.83;;
20230;SDS011;10274;49.022;9.338;2022-08-21T04:52:10;3.43;;;3.13;;
20230;SDS011;10274;49.022;9.338;2022-08-21T04:54:39;4.03;;;3.20;;
20230;SDS011;10274;49.022;9.338;2022-08-21T04:57:08;3.97;;;2.80;;
20230;SDS011;10274;49.022;9.338;2022-08-21T04:59:38;3.20;;;2.60;;
20230;SDS011;10274;49.022;9.338;2022-08-21T05:02:07;3.77;;;2.63;;
20230;SDS011;10274;49.022;9.338;2022-08-21T05:04:36;3.23;;;2.60;;
20230;SDS011;10274;49.022;9.338;2022-08-21T05:07:12;4.37;;;3.13;;
20230;SDS011;10274;49.022;9.338;2022-08-21T05:09:43;3.57;;;2.70;;
20230;SDS011;10274;49.022;9.338;2022-08-21T05:12:10;3.33;;;2.80;;
20230;SDS011;10274;49.022;9.338;2022-08-21T05:14:37;3.63;;;3.17;;
20230;SDS011;10274;49.022;9.338;2022-08-21T05:17:05;3.40;;;3.10;;
20230;SDS011;10274;49.022;9.338;2022-08-21T05:19:32;3.00;;;2.70;;
20230;SDS011;10274;49.022;9.338;2022-08-21T05:21:59;3.87;;;2.80;;
20230;SDS011;10274;49.022;9.338;2022-08-21T05:24:27;3.57;;;2.70;;
20230;SDS011;10274;49.022;9.338;2022-08-21T05:26:54;3.50;;;2.70;;
20230;SDS011;10274;49.022;9.338;2022-08-21T05:29:21;3.13;;;2.53;;
20230;SDS011;10274;49.022;9.338;2022-08-21T05:31:48;3.53;;;2.97;;
20230;SDS011;10274;49.022;9.338;2022-08-21T05:34:17;4.50;;;2.33;;
20230;SDS011;10274;49.022;9.338;2022-08-21T05:36:46;4.87;;;2.93;;
20230;SDS011;10274;49.022;9.338;2022-08-21T05:39:12;3.90;;;3.03;;
20230;SDS011;10274;49.022;9.338;2022-08-21T05:41:41;3.30;;;2.90;;
20230;SDS011;10274;49.022;9.338;2022-08-21T05:44:07;3.67;;;3.27;;
20230;SDS011;10274;49.022;9.338;2022-08-21T05:46:34;4.00;;;3.07;;
20230;SDS011;10274;49.022;9.338;2022-08-21T05:49:01;4.57;;;3.33;;
20230;SDS011;10274;49.022;9.338;2022-08-21T05:51:28;3.50;;;3.00;;
20230;SDS011;10274;49.022;9.338;2022-08-21T05:53:54;3.57;;;3.27;;
20230;SDS011;10274;49.022;9.338;2022-08-21T05:56:21;3.97;;;3.43;;
20230;SDS011;10274;49.022;9.338;2022-08-21T05:58:49;4.43;;;3.77;;
20230;SDS011;10274;49.022;9.338;2022-08-21T06:01:16;4.30;;;3.50;;
20230;SDS011;10274;49.022;9.338;2022-08-21T06:03:42;5.87;;;3.80;;
20230;SDS011;10274;49.022;9.338;2022-08-21T06:06:10;5.43;;;3.50;;
20230;SDS011;10274;49.022;9.338;2022-08-21T06:08:37;6.50;;;3.67;;
20230;SDS011;10274;49.022;9.338;2022-08-21T06:11:04;8.60;;;3.90;;
20230;SDS011;10274;49.022;9.338;2022-08-21T06:13:32;5.63;;;4.03;;
20230;SDS011;10274;49.022;9.338;2022-08-21T06:16:05;5.67;;;3.87;;
20230;SDS011;10274;49.022;9.338;2022-08-21T06:18:34;5.97;;;3.93;;
20230;SDS011;10274;49.022;9.338;2022-08-21T06:21:01;4.53;;;4.13;;
20230;SDS011;10274;49.022;9.338;2022-08-21T06:23:28;5.90;;;3.63;;
20230;SDS011;10274;49.022;9.338;2022-08-21T06:25:55;5.67;;;3.93;;
20230;SDS011;10274;49.022;9.338;2022-08-21T06:28:22;4.50;;;3.90;;
20230;SDS011;10274;49.022;9.338;2022-08-21T06:30:48;4.83;;;3.57;;
20230;SDS011;10274;49.022;9.338;2022-08-21T06:33:17;7.13;;;3.70;;
20230;SDS011;10274;49.022;9.338;2022-08-21T06:35:44;4.23;;;3.33;;
20230;SDS011;10274;49.022;9.338;2022-08-21T06:38:10;4.53;;;4.07;;
20230;SDS011;10274;49.022;9.338;2022-08-21T06:40:37;3.47;;;3.10;;
20230;SDS011;10274;49.022;9.338;2022-08-21T06:43:06;3.30;;;3.00;;
20230;SDS011;10274;49.022;9.338;2022-08-21T06:45:34;4.97;;;3.00;;
20230;SDS011;10274;49.022;9.338;2022-08-21T06:48:01;3.53;;;3.23;;
20230;SDS011;10274;49.022;9.338;2022-08-21T06:50:30;3.23;;;2.90;;
20230;SDS011;10274;49.022;9.338;2022-08-21T06:53:01;4.33;;;3.10;;
20230;SDS011;10274;49.022;9.338;2022-08-21T06:55:29;5.53;;;3.07;;
20230;SDS011;10274;49.022;9.338;2022-08-21T06:57:56;3.30;;;2.63;;
20230;SDS011;10274;49.022;9.338;2022-08-21T07:00:23;4.23;;;3.10;;
20230;SDS011;10274;49.022;9.338;2022-08-21T07:02:50;4.67;;;2.70;;
20230;SDS011;10274;49.022;9.338;2022-08-21T07:05:17;4.93;;;2.80;;
20230;SDS011;10274;49.022;9.338;2022-08-21T07:07:45;4.63;;;2.60;;
20230;SDS011;10274;49.022;9.338;2022-08-21T07:10:12;5.03;;;2.50;;
20230;SDS011;10274;49.022;9.338;2022-08-21T07:12:39;3.80;;;2.50;;
20230;SDS011;10274;49.022;9.338;2022-08-21T07:15:06;3.87;;;2.70;;
20230;SDS011;10274;49.022;9.338;2022-08-21T07:17:34;4.97;;;2.80;;
20230;SDS011;10274;49.022;9.338;2022-08-21T07:20:00;8.17;;;2.53;;
20230;SDS011;10274;49.022;9.338;2022-08-21T07:22:27;5.37;;;3.07;;
20230;SDS011;10274;49.022;9.338;2022-08-21T07:24:55;4.13;;;2.67;;
20230;SDS011;10274;49.022;9.338;2022-08-21T07:27:22;4.10;;;2.73;;
20230;SDS011;10274;49.022;9.338;2022-08-21T07:29:49;2.53;;;1.90;;
20230;SDS011;10274;49.022;9.338;2022-08-21T07:32:15;3.43;;;2.60;;
20230;SDS011;10274;49.022;9.338;2022-08-21T07:34:42;5.03;;;2.53;;
20230;SDS011;10274;49.022;9.338;2022-08-21T07:37:09;5.83;;;2.80;;
20230;SDS011;10274;49.022;9.338;2022-08-21T07:39:36;6.10;;;3.13;;
20230;SDS011;10274;49.022;9.338;2022-08-21T07:42:04;3.50;;;3.10;;
20230;SDS011;10274;49.022;9.338;2022-08-21T07:44:31;7.30;;;2.97;;
20230;SDS011;10274;49.022;9.338;2022-08-21T07:46:59;7.83;;;3.30;;
20230;SDS011;10274;49.022;9.338;2022-08-21T07:49:25;5.73;;;3.10;;
20230;SDS011;10274;49.022;9.338;2022-08-21T07:51:52;6.53;;;2.93;;
20230;SDS011;10274;49.022;9.338;2022-08-21T07:54:19;6.77;;;3.53;;
20230;SDS011;10274;49.022;9.338;2022-08-21T07:56:46;4.90;;;3.23;;
20230;SDS011;10274;49.022;9.338;2022-08-21T07:59:14;6.07;;;3.60;;
20230;SDS011;10274;49.022;9.338;2022-08-21T08:01:41;6.33;;;3.30;;
20230;SDS011;10274;49.022;9.338;2022-08-21T08:04:07;5.33;;;3.33;;
20230;SDS011;10274;49.022;9.338;2022-08-21T08:06:34;5.33;;;3.13;;
20230;SDS011;10274;49.022;9.338;2022-08-21T08:09:01;7.00;;;3.57;;
20230;SDS011;10274;49.022;9.338;2022-08-21T08:11:28;6.73;;;3.70;;
20230;SDS011;10274;49.022;9.338;2022-08-21T08:13:55;5.43;;;3.40;;
20230;SDS011;10274;49.022;9.338;2022-08-21T08:16:25;6.63;;;3.50;;
20230;SDS011;10274;49.022;9.338;2022-08-21T08:18:52;7.47;;;4.20;;
20230;SDS011;10274;49.022;9.338;2022-08-21T08:21:20;4.73;;;3.53;;
20230;SDS011;10274;49.022;9.338;2022-08-21T08:23:47;5.17;;;3.37;;
20230;SDS011;10274;49.022;9.338;2022-08-21T08:26:14;8.13;;;3.90;;
20230;SDS011;10274;49.022;9.338;2022-08-21T08:28:41;7.07;;;3.90;;
20230;SDS011;10274;49.022;9.338;2022-08-21T08:31:08;6.97;;;3.78;;
20230;SDS011;10274;49.022;9.338;2022-08-21T08:33:37;6.55;;;3.78;;
20230;SDS011;10274;49.022;9.338;2022-08-21T08:36:04;9.27;;;4.80;;
20230;SDS011;10274;49.022;9.338;2022-08-21T08:38:31;5.55;;;4.03;;
20230;SDS011;10274;49.022;9.338;2022-08-21T08:41:00;6.13;;;3.72;;
20230;SDS011;10274;49.022;9.338;2022-08-21T08:43:30;5.82;;;3.67;;
20230;SDS011;10274;49.022;9.338;2022-08-21T08:45:59;5.03;;;3.47;;
20230;SDS011;10274;49.022;9.338;2022-08-21T08:48:32;4.93;;;3.97;;
20230;SDS011;10274;49.022;9.338;2022-08-21T08:51:12;5.78;;;3.42;;
20230;SDS011;10274;49.022;9.338;2022-08-21T08:53:46;6.88;;;3.25;;
20230;SDS011;10274;49.022;9.338;2022-08-21T08:56:15;4.82;;;3.28;;
20230;SDS011;10274;49.022;9.338;2022-08-21T08:58:47;5.43;;;3.45;;
20230;SDS011;10274;49.022;9.338;2022-08-21T09:01:18;4.88;;;3.00;;
20230;SDS011;10274;49.022;9.338;2022-08-21T09:03:47;4.93;;;3.15;;
20230;SDS011;10274;49.022;9.338;2022-08-21T09:06:19;4.80;;;3.25;;
20230;SDS011;10274;49.022;9.338;2022-08-21T09:08:58;4.75;;;3.22;;
20230;SDS011;10274;49.022;9.338;2022-08-21T09:11:34;6.40;;;2.70;;
20230;SDS011;10274;49.022;9.338;2022-08-21T09:14:08;4.22;;;3.25;;
20230;SDS011;10274;49.022;9.338;2022-08-21T09:16:46;4.47;;;2.80;;
20230;SDS011;10274;49.022;9.338;2022-08-21T09:19:23;7.38;;;3.17;;
20230;SDS011;10274;49.022;9.338;2022-08-21T09:22:00;6.20;;;3.42;;
20230;SDS011;10274;49.022;9.338;2022-08-21T09:24:38;5.45;;;3.00;;
20230;SDS011;10274;49.022;9.338;2022-08-21T09:27:12;5.85;;;3.13;;
20230;SDS011;10274;49.022;9.338;2022-08-21T09:29:42;5.05;;;2.95;;
20230;SDS011;10274;49.022;9.338;2022-08-21T09:32:12;4.03;;;2.97;;
20230;SDS011;10274;49.022;9.338;2022-08-21T09:34:54;3.50;;;2.55;;
20230;SDS011;10274;49.022;9.338;2022-08-21T09:37:22;7.38;;;3.10;;
20230;SDS011;10274;49.022;9.338;2022-08-21T09:39:49;3.95;;;2.80;;
20230;SDS011;10274;49.022;9.338;2022-08-21T09:42:21;6.07;;;3.42;;
20230;SDS011;10274;49.022;9.338;2022-08-21T09:45:00;6.03;;;3.20;;
20230;SDS011;10274;49.022;9.338;2022-08-21T09:47:32;6.22;;;2.90;;
20230;SDS011;10274;49.022;9.338;2022-08-21T09:50:08;5.20;;;2.70;;
20230;SDS011;10274;49.022;9.338;2022-08-21T09:52:42;3.63;;;2.90;;
20230;SDS011;10274;49.022;9.338;2022-08-21T09:55:14;3.38;;;2.50;;
20230;SDS011;10274;49.022;9.338;2022-08-21T09:57:58;6.20;;;2.80;;
20230;SDS011;10274;49.022;9.338;2022-08-21T10:00:27;5.85;;;3.13;;
20230;SDS011;10274;49.022;9.338;2022-08-21T10:03:07;4.18;;;2.60;;
20230;SDS011;10274;49.022;9.338;2022-08-21T10:05:39;9.13;;;2.90;;
20230;SDS011;10274;49.022;9.338;2022-08-21T10:08:16;5.97;;;2.72;;
20230;SDS011;10274;49.022;9.338;2022-08-21T10:10:44;6.13;;;3.22;;
20230;SDS011;10274;49.022;9.338;2022-08-21T10:13:12;6.32;;;2.83;;
20230;SDS011;10274;49.022;9.338;2022-08-21T10:15:47;4.72;;;2.90;;
20230;SDS011;10274;49.022;9.338;2022-08-21T10:18:20;5.30;;;2.53;;
20230;SDS011;10274;49.022;9.338;2022-08-21T10:20:59;5.25;;;2.80;;
20230;SDS011;10274;49.022;9.338;2022-08-21T10:23:32;4.43;;;2.60;;
20230;SDS011;10274;49.022;9.338;2022-08-21T10:26:08;6.05;;;2.90;;
20230;SDS011;10274;49.022;9.338;2022-08-21T10:28:45;6.18;;;2.75;;
20230;SDS011;10274;49.022;9.338;2022-08-21T10:31:21;5.07;;;2.70;;
20230;SDS011;10274;49.022;9.338;2022-08-21T10:34:01;5.05;;;3.00;;
20230;SDS011;10274;49.022;9.338;2022-08-21T10:36:42;6.28;;;2.50;;
20230;SDS011;10274;49.022;9.338;2022-08-21T10:39:14;5.35;;;2.60;;
20230;SDS011;10274;49.022;9.338;2022-08-21T10:41:55;6.13;;;3.40;;
20230;SDS011;10274;49.022;9.338;2022-08-21T10:44:35;4.82;;;2.55;;
20230;SDS011;10274;49.022;9.338;2022-08-21T10:47:08;6.50;;;2.50;;
20230;SDS011;10274;49.022;9.338;2022-08-21T10:49:40;4.10;;;2.50;;
20230;SDS011;10274;49.022;9.338;2022-08-21T10:52:21;6.72;;;2.30;;
20230;SDS011;10274;49.022;9.338;2022-08-21T10:54:59;6.60;;;2.63;;
20230;SDS011;10274;49.022;9.338;2022-08-21T10:57:32;7.60;;;2.75;;
20230;SDS011;10274;49.022;9.338;2022-08-21T11:00:05;4.82;;;2.75;;
20230;SDS011;10274;49.022;9.338;2022-08-21T11:02:37;3.80;;;2.25;;
20230;SDS011;10274;49.022;9.338;2022-08-21T11:05:09;5.63;;;2.40;;
20230;SDS011;10274;49.022;9.338;2022-08-21T11:07:44;4.85;;;2.63;;
20230;SDS011;10274;49.022;9.338;2022-08-21T11:10:16;5.38;;;2.33;;
20230;SDS011;10274;49.022;9.338;2022-08-21T11:12:48;6.25;;;2.50;;
20230;SDS011;10274;49.022;9.338;2022-08-21T11:15:25;4.43;;;2.65;;
20230;SDS011;10274;49.022;9.338;2022-08-21T11:18:01;3.65;;;2.67;;
20230;SDS011;10274;49.022;9.338;2022-08-21T11:20:34;3.95;;;2.75;;
20230;SDS011;10274;49.022;9.338;2022-08-21T11:23:11;4.07;;;2.95;;
20230;SDS011;10274;49.022;9.338;2022-08-21T11:25:44;5.15;;;2.47;;
20230;SDS011;10274;49.022;9.338;2022-08-21T11:28:15;5.57;;;2.67;;
20230;SDS011;10274;49.022;9.338;2022-08-21T11:30:48;4.88;;;2.33;;
20230;SDS011;10274;49.022;9.338;2022-08-21T11:33:31;5.20;;;2.35;;
20230;SDS011;10274;49.022;9.338;2022-08-21T11:36:08;4.00;;;2.15;;
20230;SDS011;10274;49.022;9.338;2022-08-21T11:38:47;4.13;;;2.25;;
20230;SDS011;10274;49.022;9.338;2022-08-21T11:41:22;3.30;;;2.50;;
20230;SDS011;10274;49.022;9.338;2022-08-21T11:43:55;5.80;;;3.00;;
20230;SDS011;10274;49.022;9.338;2022-08-21T11:46:35;4.25;;;2.53;;
20230;SDS011;10274;49.022;9.338;2022-08-21T11:49:20;5.10;;;2.60;;
20230;SDS011;10274;49.022;9.338;2022-08-21T11:51:55;6.00;;;2.83;;
20230;SDS011;10274;49.022;9.338;2022-08-21T11:54:33;5.15;;;2.60;;
20230;SDS011;10274;49.022;9.338;2022-08-21T11:57:04;4.43;;;2.63;;
20230;SDS011;10274;49.022;9.338;2022-08-21T11:59:39;5.07;;;2.60;;
20230;SDS011;10274;49.022;9.338;2022-08-21T12:02:12;3.40;;;2.50;;
20230;SDS011;10274;49.022;9.338;2022-08-21T12:04:42;5.88;;;2.47;;
20230;SDS011;10274;49.022;9.338;2022-08-21T12:07:12;4.55;;;2.50;;
20230;SDS011;10274;49.022;9.338;2022-08-21T12:09:50;4.18;;;2.30;;
20230;SDS011;10274;49.022;9.338;2022-08-21T12:12:23;3.13;;;2.17;;
20230;SDS011;10274;49.022;9.338;2022-08-21T12:15:03;4.15;;;2.40;;
20230;SDS011;10274;49.022;9.338;2022-08-21T12:17:39;3.15;;;2.42;;
20230;SDS011;10274;49.022;9.338;2022-08-21T12:20:17;4.40;;;2.42;;
20230;SDS011;10274;49.022;9.338;2022-08-21T12:22:54;5.45;;;2.42;;
20230;SDS011;10274;49.022;9.338;2022-08-21T12:25:37;3.80;;;2.40;;
20230;SDS011;10274;49.022;9.338;2022-08-21T12:28:06;4.97;;;2.65;;
20230;SDS011;10274;49.022;9.338;2022-08-21T12:30:35;3.67;;;2.30;;
20230;SDS011;10274;49.022;9.338;2022-08-21T12:33:05;3.40;;;2.08;;
20230;SDS011;10274;49.022;9.338;2022-08-21T12:35:44;4.68;;;2.80;;
20230;SDS011;10274;49.022;9.338;2022-08-21T12:38:15;6.38;;;2.50;;
20230;SDS011;10274;49.022;9.338;2022-08-21T12:40:48;4.53;;;2.53;;
20230;SDS011;10274;49.022;9.338;2022-08-21T12:43:20;3.42;;;2.35;;
20230;SDS011;10274;49.022;9.338;2022-08-21T12:45:53;4.28;;;2.05;;
20230;SDS011;10274;49.022;9.338;2022-08-21T12:48:21;4.30;;;2.30;;
20230;SDS011;10274;49.022;9.338;2022-08-21T12:50:52;5.13;;;2.35;;
20230;SDS011;10274;49.022;9.338;2022-08-21T12:53:24;4.03;;;2.20;;
20230;SDS011;10274;49.022;9.338;2022-08-21T12:55:56;2.95;;;2.30;;
20230;SDS011;10274;49.022;9.338;2022-08-21T12:58:28;3.60;;;2.13;;
20230;SDS011;10274;49.022;9.338;2022-08-21T13:00:58;4.00;;;2.20;;
20230;SDS011;10274;49.022;9.338;2022-08-21T13:03:28;5.20;;;2.60;;
20230;SDS011;10274;49.022;9.338;2022-08-21T13:05:55;6.88;;;2.33;;
20230;SDS011;10274;49.022;9.338;2022-08-21T13:08:24;4.05;;;2.40;;
20230;SDS011;10274;49.022;9.338;2022-08-21T13:10:58;3.70;;;2.30;;
20230;SDS011;10274;49.022;9.338;2022-08-21T13:13:27;3.58;;;2.25;;
20230;SDS011;10274;49.022;9.338;2022-08-21T13:15:58;3.97;;;2.78;;
20230;SDS011;10274;49.022;9.338;2022-08-21T13:18:29;2.80;;;1.98;;
20230;SDS011;10274;49.022;9.338;2022-08-21T13:21:06;4.72;;;2.17;;
20230;SDS011;10274;49.022;9.338;2022-08-21T13:23:34;5.43;;;2.20;;
20230;SDS011;10274;49.022;9.338;2022-08-21T13:26:11;6.15;;;2.72;;
20230;SDS011;10274;49.022;9.338;2022-08-21T13:28:38;5.03;;;3.03;;
20230;SDS011;10274;49.022;9.338;2022-08-21T13:31:06;3.75;;;2.42;;
20230;SDS011;10274;49.022;9.338;2022-08-21T13:33:35;4.72;;;2.28;;
20230;SDS011;10274;49.022;9.338;2022-08-21T13:36:07;4.90;;;2.30;;
20230;SDS011;10274;49.022;9.338;2022-08-21T13:38:37;4.53;;;2.38;;
20230;SDS011;10274;49.022;9.338;2022-08-21T13:41:10;2.90;;;2.42;;
20230;SDS011;10274;49.022;9.338;2022-08-21T13:43:48;4.10;;;2.10;;
20230;SDS011;10274;49.022;9.338;2022-08-21T13:46:22;3.55;;;2.10;;
20230;SDS011;10274;49.022;9.338;2022-08-21T13:48:52;3.13;;;2.38;;
20230;SDS011;10274;49.022;9.338;2022-08-21T13:51:20;3.40;;;2.00;;
20230;SDS011;10274;49.022;9.338;2022-08-21T13:53:48;3.60;;;2.40;;
20230;SDS011;10274;49.022;9.338;2022-08-21T13:56:26;4.90;;;2.40;;
20230;SDS011;10274;49.022;9.338;2022-08-21T13:58:54;4.97;;;2.30;;
20230;SDS011;10274;49.022;9.338;2022-08-21T14:01:25;3.28;;;2.17;;
20230;SDS011;10274;49.022;9.338;2022-08-21T14:03:55;3.42;;;2.42;;
20230;SDS011;10274;49.022;9.338;2022-08-21T14:06:27;4.25;;;2.30;;
20230;SDS011;10274;49.022;9.338;2022-08-21T14:09:00;5.50;;;2.28;;
20230;SDS011;10274;49.022;9.338;2022-08-21T14:11:35;4.18;;;2.42;;
20230;SDS011;10274;49.022;9.338;2022-08-21T14:14:04;3.45;;;2.03;;
20230;SDS011;10274;49.022;9.338;2022-08-21T14:16:41;5.57;;;2.50;;
20230;SDS011;10274;49.022;9.338;2022-08-21T14:19:11;3.25;;;2.17;;
20230;SDS011;10274;49.022;9.338;2022-08-21T14:21:45;3.30;;;2.40;;
20230;SDS011;10274;49.022;9.338;2022-08-21T14:24:13;3.85;;;2.22;;
20230;SDS011;10274;49.022;9.338;2022-08-21T14:26:52;4.07;;;2.40;;
20230;SDS011;10274;49.022;9.338;2022-08-21T14:29:21;4.25;;;2.28;;
20230;SDS011;10274;49.022;9.338;2022-08-21T14:31:51;3.33;;;2.17;;
20230;SDS011;10274;49.022;9.338;2022-08-21T14:34:19;3.83;;;2.47;;
20230;SDS011;10274;49.022;9.338;2022-08-21T14:36:47;3.78;;;1.98;;
20230;SDS011;10274;49.022;9.338;2022-08-21T14:39:15;3.45;;;2.35;;
20230;SDS011;10274;49.022;9.338;2022-08-21T14:41:42;4.65;;;2.20;;
20230;SDS011;10274;49.022;9.338;2022-08-21T14:44:12;3.53;;;2.53;;
20230;SDS011;10274;49.022;9.338;2022-08-21T14:46:39;5.68;;;2.17;;
20230;SDS011;10274;49.022;9.338;2022-08-21T14:49:06;3.35;;;2.05;;
20230;SDS011;10274;49.022;9.338;2022-08-21T14:51:33;3.00;;;2.28;;
20230;SDS011;10274;49.022;9.338;2022-08-21T14:53:59;3.60;;;2.03;;
20230;SDS011;10274;49.022;9.338;2022-08-21T14:56:26;2.58;;;2.10;;
20230;SDS011;10274;49.022;9.338;2022-08-21T14:58:53;2.95;;;2.00;;
20230;SDS011;10274;49.022;9.338;2022-08-21T15:01:26;4.85;;;2.30;;
20230;SDS011;10274;49.022;9.338;2022-08-21T15:03:52;3.92;;;2.22;;